Startpagina
METAR-TAF:

METAR-TAF

Vliegvelden :

Laramie, Wyoming, Verenigde Staten

breedte: 41-18-43N, lengte: 105-40-30W, hoogte: 2218 m

Actueel weer

Dit bericht is 41 minuten geleden gemaakt, om 04:53 UTC
Wind 4 kt uit het noorden
Temperatuur -11°C
Vochtigheid 92%
Druk 1022 hPa
Zicht: 16.1 km
Geheel bewolkt op 1100 ft

METAR: KLAR 180453Z AUTO 36004KT 10SM OVC011 M11/M12 A3018 RMK AO2 SLP273 T11061122

Tijdstip: 22:34 (05:34 UTC)

Verwachting

Dit bericht is 2 uur en het 31 minuten geleden gemaakt, om 03:03 UTC
Verwachting geldig van 18 om 03 UTC tot 18 om 24 UTC
Wind 5 kt uit het noordnoordwesten
Zicht: 9.7 km
Geheel bewolkt op 1500 ft
nevel
Van 18 om 0500 UTC
Wind 5 kt uit het zuidzuidwesten
Zicht: 10 km
Weinig wolken op 25000 ft
Van 18 om 0600 UTC
Wind 5 kt uit het zuidzuidwesten
Zicht: 0.8 km
op 200 ft
mist
Van 18 om 1500 UTC
Wind 10 kt uit het westzuidwesten
Zicht: 10 km
Onbewolkt

TAF: KLAR 180303Z 1803/1824 34005KT 6SM BR OVC015 FM180500 20005KT P6SM FEW250 FM180600 21005KT 1/2SM FG VV002 FM181500 25010KT P6SM SKC

Waarnemingen en weersverwachtingen van meer dan 4000 vliegvelden (METAR en TAF).

De beschikbare stations zijn de gele en rode punten op de kaart.

Ga met uw muis naar het station om de naam te zien.

Klik dan om waarnemingen en weersverwachtingen te zien.

kaart wijzigen: klik op de groene knoppen met een zwart kruis om in te zoomen, op de groene knop met een streepje om uit te zoomen of op de groene pijlen voor aangrenzende kaarten.


METAR-TAF: